Time;durP1;ratioP1;P1;durP2;ratioP2;P2;SDS_P1;SDS_P2;PMS_P1;PMS_P2;Temp;Humidity;BMP_temperature;BMP_pressure;BME280_temperature;BME280_humidity;BME280_pressure;Samples;Min_cycle;Max_cycle;Signal;HPM_P1;HPM_P2
2023/06/09 00:00:03;;;;;;;7.65;5.80;;;;;;;12.24;100.00;95599.09;1029653;28;20034;-74
2023/06/09 00:00:33;;;;;;;10.15;5.82;;;;;;;12.19;100.00;95599.13;1028288;28;20027;-74
2023/06/09 00:01:08;;;;;;;7.60;5.80;;;;;;;12.14;100.00;95591.28;1033626;28;20030;-75
2023/06/09 00:01:39;;;;;;;7.25;5.10;;;;;;;12.18;100.00;95602.84;1034251;28;20026;-74
2023/06/09 00:02:11;;;;;;;6.88;5.60;;;;;;;12.17;100.00;95601.25;1027263;28;20038;-74
2023/06/09 00:02:44;;;;;;;7.95;5.47;;;;;;;12.16;100.00;95605.72;1025391;28;20105;-74
2023/06/09 00:03:16;;;;;;;8.63;5.68;;;;;;;12.16;100.00;95610.22;1026189;28;20093;-73
2023/06/09 00:03:47;;;;;;;7.25;5.38;;;;;;;12.13;100.00;95613.38;1022510;28;20055;-75
2023/06/09 00:04:17;;;;;;;8.13;5.50;;;;;;;12.10;100.00;95606.81;1028564;28;20034;-73
2023/06/09 00:04:48;;;;;;;7.53;6.00;;;;;;;12.11;100.00;95605.78;1029575;28;20077;-74
2023/06/09 00:05:23;;;;;;;6.50;5.10;;;;;;;12.09;100.00;95612.38;1025851;28;20151;-74
2023/06/09 00:05:54;;;;;;;5.90;5.15;;;;;;;12.09;100.00;95607.09;1022171;29;20437;-75
2023/06/09 00:06:24;;;;;;;6.65;5.40;;;;;;;12.05;100.00;95604.25;1018183;29;20023;-74
2023/06/09 00:06:55;;;;;;;8.60;5.68;;;;;;;12.08;100.00;95608.19;1026487;28;20031;-74
2023/06/09 00:07:29;;;;;;;11.15;5.90;;;;;;;12.08;100.00;95608.97;1026125;28;20125;-74
2023/06/09 00:08:00;;;;;;;7.55;5.22;;;;;;;12.02;100.00;95589.78;1022211;29;20024;-74
2023/06/09 00:08:36;;;;;;;6.45;5.15;;;;;;;12.07;100.00;95601.31;1026263;28;20048;-74
2023/06/09 00:09:10;;;;;;;7.53;5.47;;;;;;;12.07;100.00;95602.09;1025940;28;20026;-74
2023/06/09 00:09:44;;;;;;;6.30;5.57;;;;;;;12.06;100.00;95599.75;1029485;28;20031;-74
2023/06/09 00:10:18;;;;;;;7.13;5.03;;;;;;;12.02;100.00;95595.06;1021982;29;20123;-76
2023/06/09 00:10:49;;;;;;;8.43;6.05;;;;;;;12.02;100.00;95597.69;1025666;28;20090;-74
2023/06/09 00:11:21;;;;;;;8.10;5.65;;;;;;;12.01;100.00;95601.38;1025632;28;20131;-74
2023/06/09 00:11:51;;;;;;;6.72;5.20;;;;;;;11.99;100.00;95603.50;1022628;28;20114;-73
2023/06/09 00:12:22;;;;;;;9.25;5.57;;;;;;;11.99;100.00;95600.06;1025972;28;20489;-75
2023/06/09 00:12:53;;;;;;;9.32;5.85;;;;;;;11.97;100.00;95603.00;1018471;29;20036;-75
2023/06/09 00:13:24;;;;;;;7.53;5.75;;;;;;;11.99;100.00;95606.13;1026780;28;20019;-75
2023/06/09 00:13:54;;;;;;;6.85;5.30;;;;;;;11.99;100.00;95610.59;1034282;28;20081;-74
2023/06/09 00:14:25;;;;;;;8.57;5.43;;;;;;;11.97;100.00;95607.44;1034217;28;20022;-75
2023/06/09 00:14:55;;;;;;;6.13;5.38;;;;;;;11.97;100.00;95602.19;1029832;28;20602;-74
2023/06/09 00:15:29;;;;;;;6.63;5.25;;;;;;;11.97;100.00;95608.25;1030130;28;20080;-74
2023/06/09 00:15:59;;;;;;;6.43;5.43;;;;;;;11.94;100.00;95602.75;1033566;28;20514;-75
2023/06/09 00:16:30;;;;;;;7.53;5.35;;;;;;;11.95;100.00;95604.31;1034711;28;20025;-75
2023/06/09 00:17:08;;;;;;;6.78;5.50;;;;;;;11.94;100.00;95593.03;1033715;28;20080;-75
2023/06/09 00:17:39;;;;;;;6.63;5.68;;;;;;;11.96;100.00;95601.41;1030027;28;20052;-74
2023/06/09 00:18:14;;;;;;;7.25;5.53;;;;;;;11.94;100.00;95603.53;1031350;28;20098;-75
2023/06/09 00:18:45;;;;;;;7.70;5.70;;;;;;;11.89;100.00;95594.91;1035892;28;20021;-74
2023/06/09 00:19:19;;;;;;;6.03;5.22;;;;;;;11.93;100.00;95601.94;1034070;28;20026;-74
2023/06/09 00:19:52;;;;;;;7.97;5.55;;;;;;;11.92;100.00;95596.97;1028321;28;20109;-75
2023/06/09 00:20:23;;;;;;;7.18;5.38;;;;;;;11.84;100.00;95587.84;1026261;28;20031;-74
2023/06/09 00:20:54;;;;;;;9.45;5.53;;;;;;;11.90;100.00;95594.59;1031194;28;20026;-74
2023/06/09 00:21:25;;;;;;;6.70;5.65;;;;;;;11.89;100.00;95597.53;1033488;28;20022;-74
2023/06/09 00:21:56;;;;;;;7.90;5.53;;;;;;;11.89;100.00;95597.53;1034754;28;20104;-75
2023/06/09 00:22:26;;;;;;;6.88;5.63;;;;;;;11.88;100.00;95590.72;1037538;28;20554;-74
2023/06/09 00:23:06;;;;;;;7.38;5.57;;;;;;;11.90;100.00;95596.44;1029263;28;20081;-74
2023/06/09 00:23:57;;;;;;;6.82;5.35;;;;;;;11.91;100.00;95593.56;1022355;29;20679;-74
2023/06/09 00:24:33;;;;;;;6.50;5.10;;;;;;;11.90;100.00;95586.72;1022172;29;20127;-74
2023/06/09 00:25:07;;;;;;;7.88;4.82;;;;;;;11.90;100.00;95597.25;1027110;28;20031;-74
2023/06/09 00:25:38;;;;;;;7.03;5.20;;;;;;;11.92;100.00;95589.09;1025999;28;20517;-75
2023/06/09 00:26:12;;;;;;;9.00;5.18;;;;;;;11.90;100.00;95591.97;1027995;28;20106;-74
2023/06/09 00:26:42;;;;;;;6.03;4.90;;;;;;;11.91;100.00;95590.16;1025500;28;20274;-76
2023/06/09 00:27:12;;;;;;;6.15;4.90;;;;;;;11.89;100.00;95593.03;1025945;28;20101;-75
2023/06/09 00:27:43;;;;;;;6.50;5.22;;;;;;;11.84;100.00;95581.75;1026652;28;20027;-74
2023/06/09 00:28:14;;;;;;;6.18;5.00;;;;;;;11.89;100.00;95582.53;1027935;28;20521;-73
2023/06/09 00:28:44;;;;;;;6.13;5.07;;;;;;;11.93;100.00;95590.66;1021336;29;20038;-75
2023/06/09 00:29:16;;;;;;;5.13;4.63;;;;;;;11.94;100.00;95590.41;1018278;29;20320;-75
2023/06/09 00:29:46;;;;;;;6.68;4.80;;;;;;;11.94;100.00;95589.63;1023059;28;20039;-73
2023/06/09 00:30:20;;;;;;;5.20;4.63;;;;;;;11.90;100.00;95584.09;1026435;28;20278;-74
2023/06/09 00:30:50;;;;;;;5.78;4.72;;;;;;;11.96;100.00;95590.88;1022777;28;20059;-74
2023/06/09 00:31:21;;;;;;;6.65;5.07;;;;;;;11.97;100.00;95595.09;1025015;28;20035;-74
2023/06/09 00:31:51;;;;;;;8.63;5.28;;;;;;;11.97;100.00;95594.28;1026441;28;20038;-74
2023/06/09 00:32:22;;;;;;;4.88;4.35;;;;;;;11.98;100.00;95599.28;1026376;28;20101;-74
2023/06/09 00:32:52;;;;;;;9.60;4.97;;;;;;;11.97;100.00;95597.75;1034339;28;20034;-74
2023/06/09 00:33:22;;;;;;;5.70;4.70;;;;;;;11.97;100.00;95596.94;1036364;28;20549;-74
2023/06/09 00:33:53;;;;;;;7.28;4.85;;;;;;;11.91;100.00;95587.53;1034175;28;20061;-75
2023/06/09 00:34:24;;;;;;;6.85;4.68;;;;;;;11.96;100.00;95596.16;1030295;28;20336;-74
2023/06/09 00:34:54;;;;;;;6.82;5.68;;;;;;;11.94;100.00;95595.66;1029988;28;20041;-74
2023/06/09 00:35:25;;;;;;;7.15;4.88;;;;;;;11.93;100.00;95591.44;1034161;28;20030;-74
2023/06/09 00:35:55;;;;;;;9.75;5.00;;;;;;;11.94;100.00;95597.50;1034633;28;20030;-74
2023/06/09 00:36:26;;;;;;;6.18;5.00;;;;;;;11.92;100.00;95589.88;1038351;28;20036;-75
2023/06/09 00:36:56;;;;;;;5.97;4.60;;;;;;;11.90;100.00;95591.97;1033916;28;20490;-74
2023/06/09 00:37:27;;;;;;;6.63;4.93;;;;;;;11.92;100.00;95595.13;1026310;28;20137;-74
2023/06/09 00:37:57;;;;;;;6.50;4.82;;;;;;;11.93;100.00;95599.31;1026132;28;20045;-74
2023/06/09 00:38:28;;;;;;;5.07;4.57;;;;;;;11.94;100.00;95597.50;1034184;28;20483;-74
2023/06/09 00:38:58;;;;;;;6.07;4.82;;;;;;;11.90;100.00;95591.97;1030103;28;20139;-74
2023/06/09 00:39:29;;;;;;;6.30;4.78;;;;;;;11.92;100.00;95594.34;1034231;28;20089;-74
2023/06/09 00:40:00;;;;;;;6.68;4.63;;;;;;;11.91;100.00;95598.81;1034772;28;20030;-75
2023/06/09 00:40:30;;;;;;;10.23;4.93;;;;;;;11.85;100.00;95591.25;1030026;28;20038;-74
2023/06/09 00:41:01;;;;;;;7.22;4.60;;;;;;;11.90;100.00;95599.88;1025687;28;20031;-72
2023/06/09 00:41:38;;;;;;;6.97;4.78;;;;;;;11.90;100.00;95599.09;1029952;28;20085;-74
2023/06/09 00:42:08;;;;;;;5.85;4.82;;;;;;;11.85;100.00;95589.41;1026890;28;20035;-74
2023/06/09 00:42:39;;;;;;;7.60;5.03;;;;;;;11.86;100.00;95590.97;1027036;28;20396;-75
2023/06/09 00:43:09;;;;;;;7.28;5.05;;;;;;;11.87;100.00;95594.38;1037234;28;20039;-74
2023/06/09 00:43:47;;;;;;;6.97;5.15;;;;;;;11.82;100.00;95584.66;1025950;28;20034;-75
2023/06/09 00:44:17;;;;;;;8.02;5.30;;;;;;;11.85;100.00;95592.03;1038216;28;20177;-75
2023/06/09 00:44:48;;;;;;;6.57;5.25;;;;;;;11.81;100.00;95593.63;1034133;28;20526;-74
2023/06/09 00:45:19;;;;;;;7.13;5.43;;;;;;;11.84;100.00;95594.88;1028537;28;22014;-75
2023/06/09 00:45:49;;;;;;;6.10;5.50;;;;;;;11.80;100.00;95587.56;1026089;28;20027;-75
2023/06/09 00:46:20;;;;;;;5.93;5.25;;;;;;;11.80;100.00;95589.38;1022055;29;20032;-75
2023/06/09 00:46:50;;;;;;;10.25;5.90;;;;;;;11.79;100.00;95593.88;1026075;28;20082;-73
2023/06/09 00:47:20;;;;;;;8.48;5.75;;;;;;;11.78;100.00;95588.91;1022146;29;20106;-74
2023/06/09 00:47:51;;;;;;;6.85;5.20;;;;;;;11.77;100.00;95592.59;1022080;29;20656;-73
2023/06/09 00:48:22;;;;;;;7.95;5.65;;;;;;;11.76;100.00;95591.78;1018251;29;20595;-74
2023/06/09 00:48:55;;;;;;;7.63;5.95;;;;;;;11.71;100.00;95581.31;1021323;29;20026;-75
2023/06/09 00:49:25;;;;;;;8.70;5.60;;;;;;;11.68;100.00;95588.97;1021402;29;20634;-75
2023/06/09 00:49:55;;;;;;;7.20;5.63;;;;;;;11.67;100.00;95582.13;1034066;28;20072;-74
2023/06/09 00:50:26;;;;;;;8.65;6.20;;;;;;;11.66;100.00;95581.34;1032709;28;20025;-74
2023/06/09 00:50:57;;;;;;;9.10;6.10;;;;;;;11.66;100.00;95585.81;1025926;28;20023;-74
2023/06/09 00:51:28;;;;;;;7.45;5.65;;;;;;;11.70;100.00;95587.63;1029541;28;20113;-75
2023/06/09 00:51:58;;;;;;;7.78;5.70;;;;;;;11.69;100.00;95586.06;1029973;28;20010;-75
2023/06/09 00:52:29;;;;;;;7.68;6.00;;;;;;;11.67;100.00;95588.19;1025972;28;20375;-74
2023/06/09 00:52:59;;;;;;;7.60;6.00;;;;;;;11.59;100.00;95572.19;1018909;29;20375;-75
2023/06/09 00:53:33;;;;;;;6.93;5.40;;;;;;;11.64;100.00;95582.69;1030917;28;20445;-74
2023/06/09 00:54:06;;;;;;;6.88;5.60;;;;;;;11.68;100.00;95586.34;1030779;28;20026;-75
2023/06/09 00:54:37;;;;;;;7.30;5.93;;;;;;;11.67;100.00;95582.94;1030824;28;20026;-75
2023/06/09 00:55:08;;;;;;;8.30;5.78;;;;;;;11.64;100.00;95586.09;1021998;28;20269;-74
2023/06/09 00:55:39;;;;;;;6.40;5.45;;;;;;;11.66;100.00;95583.19;1022797;29;20050;-74
2023/06/09 00:56:11;;;;;;;6.68;5.40;;;;;;;11.66;100.00;95585.81;1026963;28;20027;-75
2023/06/09 00:56:45;;;;;;;8.43;5.72;;;;;;;11.64;100.00;95583.47;1026836;28;20122;-75
2023/06/09 00:57:16;;;;;;;7.68;5.80;;;;;;;11.66;100.00;95580.56;1022807;28;20638;-74
2023/06/09 00:57:47;;;;;;;6.97;5.72;;;;;;;11.64;100.00;95582.69;1019055;29;20137;-75
2023/06/09 00:58:17;;;;;;;7.55;5.93;;;;;;;11.62;100.00;95580.31;1022783;29;20030;-74
2023/06/09 00:58:47;;;;;;;8.88;5.55;;;;;;;11.60;100.00;95581.63;1026578;28;20027;-74
2023/06/09 00:59:18;;;;;;;19.45;6.30;;;;;;;11.61;100.00;95585.84;1026964;28;20029;-75
2023/06/09 00:59:48;;;;;;;7.60;5.40;;;;;;;11.59;100.00;95587.97;1015196;29;20024;-75
2023/06/09 01:00:24;;;;;;;6.70;5.55;;;;;;;11.60;100.00;95594.78;1015161;29;20028;-75
2023/06/09 01:00:57;;;;;;;7.53;6.13;;;;;;;11.57;100.00;95586.41;1023524;28;20082;-75
2023/06/09 01:01:32;;;;;;;12.10;5.88;;;;;;;11.50;100.00;95575.41;1024310;28;20267;-75
2023/06/09 01:02:04;;;;;;;10.25;5.70;;;;;;;11.51;100.00;95581.44;1027294;28;20023;-75
2023/06/09 01:02:37;;;;;;;8.60;5.50;;;;;;;11.54;100.00;95584.31;1034842;28;20018;-75
2023/06/09 01:03:10;;;;;;;13.35;5.78;;;;;;;11.54;100.00;95586.16;1026950;28;20062;-75
2023/06/09 01:03:40;;;;;;;11.48;6.60;;;;;;;11.51;100.00;95590.09;1031799;28;20432;-75
2023/06/09 01:04:12;;;;;;;9.40;6.00;;;;;;;11.53;100.00;95593.22;1033775;28;20423;-75
2023/06/09 01:04:49;;;;;;;11.27;5.88;;;;;;;11.49;100.00;95586.97;1030680;28;20038;-75
2023/06/09 01:05:19;;;;;;;10.00;5.85;;;;;;;11.44;100.00;95587.00;1030633;28;20269;-75
2023/06/09 01:05:50;;;;;;;6.05;5.20;;;;;;;11.51;100.00;95595.38;1034867;28;20029;-75
2023/06/09 01:06:32;;;;;;;9.52;6.55;;;;;;;11.50;100.00;95593.81;1030710;28;20070;-75
2023/06/09 01:07:03;;;;;;;28.05;6.50;;;;;;;11.49;100.00;95592.22;1032396;28;20033;-75
2023/06/09 01:07:46;;;;;;;9.73;5.53;;;;;;;11.47;100.00;95590.94;1033103;28;20268;-74
2023/06/09 01:08:19;;;;;;;9.30;5.50;;;;;;;11.46;100.00;95590.13;1030061;28;20030;-74
2023/06/09 01:09:30;;;;;;;6.90;5.68;;;;;;;11.43;100.00;95593.28;1030725;28;20352;-76
2023/06/09 01:10:04;;;;;;;6.53;5.00;;;;;;;11.42;100.00;95591.72;1026610;28;20516;-75
2023/06/09 01:11:00;;;;;;;7.50;5.10;;;;;;;11.33;100.00;95580.22;1027126;28;20038;-74
2023/06/09 01:11:41;;;;;;;13.35;5.45;;;;;;;11.41;100.00;95590.16;1022555;29;20259;-76
2023/06/09 01:12:50;;;;;;;6.43;5.00;;;;;;;11.38;100.00;95587.31;1018488;29;20302;-75
2023/06/09 01:13:33;;;;;;;6.65;4.72;;;;;;;11.36;100.00;95587.56;1026926;28;20098;-74
2023/06/09 01:14:13;;;;;;;6.47;5.32;;;;;;;11.36;100.00;95587.56;1025362;28;20855;-74
2023/06/09 01:14:57;;;;;;;8.63;5.38;;;;;;;11.37;100.00;95589.16;1022629;29;20266;-75
2023/06/09 01:15:29;;;;;;;8.60;6.00;;;;;;;11.32;100.00;95582.06;1022098;28;20098;-73
2023/06/09 01:16:22;;;;;;;7.45;5.63;;;;;;;11.37;100.00;95588.34;1026392;28;20844;-75
2023/06/09 01:17:18;;;;;;;6.03;4.90;;;;;;;11.26;100.00;95584.97;1035010;28;20375;-75
2023/06/09 01:17:56;;;;;;;5.85;4.65;;;;;;;11.34;100.00;95589.69;1029820;28;20283;-75
2023/06/09 01:18:30;;;;;;;9.95;5.57;;;;;;;11.33;100.00;95594.16;1019882;28;20270;-74
2023/06/09 01:19:01;;;;;;;7.45;5.45;;;;;;;11.33;100.00;95594.16;1022785;29;20285;-74
2023/06/09 01:19:52;;;;;;;6.85;4.82;;;;;;;11.33;100.00;95588.91;1026692;28;20270;-74
2023/06/09 01:20:45;;;;;;;6.80;5.40;;;;;;;11.30;100.00;95583.38;1026442;28;20461;-75
2023/06/09 01:21:35;;;;;;;9.63;5.90;;;;;;;11.35;100.00;95593.88;1029813;28;20092;-74
2023/06/09 01:22:27;;;;;;;7.50;5.65;;;;;;;11.35;100.00;95596.50;1031340;28;20269;-74
2023/06/09 01:23:04;;;;;;;7.07;5.22;;;;;;;11.33;100.00;95598.59;1032084;28;20254;-75
2023/06/09 01:24:00;;;;;;;7.32;5.40;;;;;;;11.32;100.00;95592.56;1031772;28;20308;-74
2023/06/09 01:25:10;;;;;;;7.30;5.65;;;;;;;11.30;100.00;95583.38;1030789;28;20656;-74
2023/06/09 01:25:42;;;;;;;6.25;5.28;;;;;;;11.31;100.00;95592.84;1030614;28;20294;-74
2023/06/09 01:26:12;;;;;;;7.80;6.13;;;;;;;11.29;100.00;95600.97;1028166;28;20361;-75
2023/06/09 01:26:43;;;;;;;7.50;5.50;;;;;;;11.28;100.00;95588.13;1026238;28;20318;-75
2023/06/09 01:27:16;;;;;;;9.25;6.38;;;;;;;11.29;100.00;95587.06;1022678;29;20039;-75
2023/06/09 01:27:46;;;;;;;6.90;5.45;;;;;;;11.29;100.00;95587.84;1026646;28;20031;-74
2023/06/09 01:28:20;;;;;;;7.68;5.38;;;;;;;11.31;100.00;95592.84;1022463;28;20533;-74
2023/06/09 01:28:53;;;;;;;9.25;6.22;;;;;;;11.25;100.00;95594.69;1014746;29;20035;-74
2023/06/09 01:29:25;;;;;;;6.65;5.93;;;;;;;11.26;100.00;95592.84;1022777;29;20309;-74
2023/06/09 01:29:55;;;;;;;7.25;5.85;;;;;;;11.25;100.00;95589.44;1024478;28;21029;-75
2023/06/09 01:30:29;;;;;;;6.72;4.82;;;;;;;11.32;100.00;95595.19;1027417;28;20275;-75
2023/06/09 01:31:00;;;;;;;6.75;5.90;;;;;;;11.33;100.00;95593.34;1023253;28;20023;-73
2023/06/09 01:31:33;;;;;;;8.18;6.15;;;;;;;11.32;100.00;95591.78;1022053;28;20632;-75
2023/06/09 01:32:04;;;;;;;7.63;5.85;;;;;;;11.32;100.00;95597.03;1023668;28;20810;-75
2023/06/09 01:32:35;;;;;;;8.88;5.38;;;;;;;11.32;100.00;95586.53;1030654;28;20270;-74
2023/06/09 01:33:07;;;;;;;6.82;5.50;;;;;;;11.28;100.00;95585.50;1030707;28;20029;-74
2023/06/09 01:33:40;;;;;;;8.35;5.95;;;;;;;11.31;100.00;95585.75;1022863;29;20035;-75
2023/06/09 01:34:11;;;;;;;7.57;5.55;;;;;;;11.36;100.00;95589.41;1014730;29;20615;-74
2023/06/09 01:34:42;;;;;;;7.72;6.10;;;;;;;11.33;100.00;95588.91;1026904;28;20015;-74
2023/06/09 01:35:13;;;;;;;6.78;5.80;;;;;;;11.37;100.00;95594.41;1030477;28;20077;-74
2023/06/09 01:35:43;;;;;;;7.95;5.93;;;;;;;11.33;100.00;95591.53;1030751;28;20376;-74
2023/06/09 01:36:14;;;;;;;8.23;6.18;;;;;;;11.33;100.00;95593.34;1026656;28;20065;-75
2023/06/09 01:36:44;;;;;;;6.90;5.93;;;;;;;11.33;100.00;95603.84;1032741;28;20073;-74
2023/06/09 01:37:15;;;;;;;8.20;6.18;;;;;;;11.31;100.00;95598.09;1022713;29;20124;-75
2023/06/09 01:37:46;;;;;;;6.78;5.45;;;;;;;11.28;100.00;95596.00;1022742;29;20031;-75
2023/06/09 01:38:20;;;;;;;8.48;5.13;;;;;;;11.32;100.00;95599.66;1025675;28;20035;-75
2023/06/09 01:38:51;;;;;;;7.18;5.80;;;;;;;11.31;100.00;95593.63;1027458;28;20042;-75
2023/06/09 01:39:24;;;;;;;8.32;5.47;;;;;;;11.28;100.00;95596.78;1025974;28;20262;-74
2023/06/09 01:39:55;;;;;;;7.32;5.70;;;;;;;11.31;100.00;95595.47;1023038;28;20043;-74
2023/06/09 01:40:25;;;;;;;6.43;5.40;;;;;;;11.31;100.00;95590.22;1034687;28;20698;-74
2023/06/09 01:40:56;;;;;;;9.48;5.75;;;;;;;11.31;100.00;95598.09;1026719;28;20035;-74
2023/06/09 01:41:26;;;;;;;7.70;5.78;;;;;;;11.31;100.00;95601.50;1026022;28;20139;-74
2023/06/09 01:41:56;;;;;;;7.78;5.65;;;;;;;11.32;100.00;95594.41;1026473;28;20026;-75
2023/06/09 01:42:27;;;;;;;7.22;5.47;;;;;;;11.26;100.00;95582.34;1026616;28;20023;-74
2023/06/09 01:42:59;;;;;;;10.02;5.75;;;;;;;11.30;100.00;95588.63;1026715;28;20073;-74
2023/06/09 01:43:30;;;;;;;6.40;5.15;;;;;;;11.31;100.00;95582.34;1026353;28;20037;-74
2023/06/09 01:44:00;;;;;;;9.30;6.07;;;;;;;11.31;100.00;95590.22;1026752;28;20281;-75
2023/06/09 01:44:34;;;;;;;9.50;5.43;;;;;;;11.32;100.00;95589.16;1022715;28;20051;-74
2023/06/09 01:45:05;;;;;;;8.63;5.40;;;;;;;11.32;100.00;95597.03;1024445;28;20038;-75
2023/06/09 01:45:35;;;;;;;7.50;5.43;;;;;;;11.30;100.00;95591.25;1038877;28;20359;-74
2023/06/09 01:46:06;;;;;;;7.38;5.88;;;;;;;11.29;100.00;95594.94;1039412;28;20083;-74
2023/06/09 01:46:39;;;;;;;7.10;5.47;;;;;;;11.30;100.00;95586.00;1038824;28;20095;-74
2023/06/09 01:47:10;;;;;;;7.00;5.85;;;;;;;11.30;100.00;95591.25;1029905;28;20022;-74
2023/06/09 01:47:40;;;;;;;6.45;5.65;;;;;;;11.29;100.00;95585.22;1030752;28;20816;-75
2023/06/09 01:48:21;;;;;;;9.25;5.80;;;;;;;11.29;100.00;95589.69;1034752;28;20030;-74
2023/06/09 01:48:59;;;;;;;8.38;5.32;;;;;;;11.25;100.00;95581.56;1030410;28;20034;-75
2023/06/09 01:49:41;;;;;;;6.78;4.97;;;;;;;11.28;100.00;95580.25;1026790;28;20033;-74
2023/06/09 01:50:28;;;;;;;7.32;5.20;;;;;;;11.29;100.00;95589.69;1026367;28;20361;-75
2023/06/09 01:51:18;;;;;;;8.68;5.95;;;;;;;11.32;100.00;95586.53;1026611;28;20331;-72
2023/06/09 01:51:51;;;;;;;7.97;5.50;;;;;;;11.31;100.00;95591.00;1029285;28;20286;-75
2023/06/09 01:52:28;;;;;;;7.78;5.40;;;;;;;11.27;100.00;95579.47;1034860;28;20091;-75
2023/06/09 01:53:02;;;;;;;7.68;5.93;;;;;;;11.32;100.00;95587.31;1026581;28;20277;-74
2023/06/09 01:53:34;;;;;;;6.63;5.60;;;;;;;11.33;100.00;95590.72;1022597;29;20267;-74
2023/06/09 01:54:10;;;;;;;7.95;5.90;;;;;;;11.32;100.00;95587.31;1026519;28;20322;-75
2023/06/09 01:54:43;;;;;;;6.72;5.88;;;;;;;11.31;100.00;95584.97;1022550;29;20387;-77
2023/06/09 01:55:23;;;;;;;6.40;5.07;;;;;;;11.32;100.00;95591.78;1030516;28;20269;-75
2023/06/09 01:56:11;;;;;;;7.55;5.78;;;;;;;11.29;100.00;95581.81;1030687;28;20284;-75
2023/06/09 01:56:47;;;;;;;7.30;5.45;;;;;;;11.30;100.00;95588.63;1034780;28;20037;-75
2023/06/09 01:57:33;;;;;;;6.78;5.78;;;;;;;11.24;100.00;95582.63;1030595;28;20834;-74
2023/06/09 01:58:17;;;;;;;8.02;5.85;;;;;;;11.24;100.00;95587.09;1018649;29;20271;-74
2023/06/09 01:58:50;;;;;;;8.48;5.43;;;;;;;11.26;100.00;95592.84;1026329;28;20269;-74
2023/06/09 01:59:23;;;;;;;6.45;5.60;;;;;;;11.22;100.00;95590.00;1022675;29;20863;-74
2023/06/09 01:59:55;;;;;;;7.35;5.72;;;;;;;11.21;100.00;95585.81;1018698;29;20809;-74
2023/06/09 02:00:26;;;;;;;6.20;5.28;;;;;;;11.27;100.00;95597.84;1026536;28;20270;-74
2023/06/09 02:00:57;;;;;;;6.97;5.60;;;;;;;11.28;100.00;95593.38;1030453;28;20284;-73
2023/06/09 02:01:28;;;;;;;7.60;5.32;;;;;;;11.27;100.00;95592.59;1025946;28;20420;-75
2023/06/09 02:01:58;;;;;;;7.15;5.80;;;;;;;11.27;100.00;95594.44;1030766;28;20044;-75
2023/06/09 02:02:28;;;;;;;8.20;5.80;;;;;;;11.24;100.00;95576.59;1026418;28;20033;-75
2023/06/09 02:02:59;;;;;;;7.82;6.32;;;;;;;11.26;100.00;95582.34;1026496;28;20031;-75
2023/06/09 02:03:30;;;;;;;7.32;6.07;;;;;;;11.26;100.00;95590.22;1030702;28;20476;-75
2023/06/09 02:04:02;;;;;;;6.15;5.53;;;;;;;11.26;100.00;95593.63;1030111;28;20049;-75
2023/06/09 02:04:33;;;;;;;6.10;5.35;;;;;;;11.18;100.00;95580.31;1032541;28;20339;-75
2023/06/09 02:05:05;;;;;;;8.52;5.85;;;;;;;11.27;100.00;95591.81;1034513;28;20261;-74
2023/06/09 02:05:35;;;;;;;6.53;5.68;;;;;;;11.25;100.00;95593.91;1030338;28;20069;-74
2023/06/09 02:06:06;;;;;;;6.80;5.72;;;;;;;11.19;100.00;95581.88;1026698;28;20266;-74
2023/06/09 02:06:36;;;;;;;8.73;5.70;;;;;;;11.19;100.00;95587.13;1026458;28;20019;-74
2023/06/09 02:07:08;;;;;;;7.35;5.60;;;;;;;11.22;100.00;95592.63;1022440;28;20042;-75
2023/06/09 02:07:39;;;;;;;7.35;5.55;;;;;;;11.21;100.00;95588.41;1026609;28;20141;-74
2023/06/09 02:08:10;;;;;;;7.88;5.88;;;;;;;11.22;100.00;95591.84;1022492;29;20350;-74
2023/06/09 02:08:40;;;;;;;7.43;6.20;;;;;;;11.19;100.00;95587.91;1027051;28;20812;-75
2023/06/09 02:09:11;;;;;;;6.55;5.45;;;;;;;11.23;100.00;95598.66;1026330;28;20408;-74
2023/06/09 02:09:44;;;;;;;8.07;6.40;;;;;;;11.21;100.00;95595.53;1030758;28;20712;-75
2023/06/09 02:10:14;;;;;;;7.15;6.00;;;;;;;11.19;100.00;95589.75;1026546;28;20034;-74
2023/06/09 02:10:44;;;;;;;6.53;5.35;;;;;;;11.19;100.00;95592.38;1024172;28;20279;-75
2023/06/09 02:11:15;;;;;;;6.43;5.72;;;;;;;11.16;100.00;95587.66;1029895;28;20081;-75
2023/06/09 02:11:52;;;;;;;8.80;5.90;;;;;;;11.18;100.00;95594.22;1035037;28;20042;-75
2023/06/09 02:12:22;;;;;;;9.05;6.13;;;;;;;11.17;100.00;95587.41;1038632;28;20690;-75
2023/06/09 02:12:53;;;;;;;8.45;6.10;;;;;;;11.11;100.00;95582.44;1026521;28;20278;-75
2023/06/09 02:13:23;;;;;;;8.57;6.28;;;;;;;11.11;100.00;95577.19;1029400;28;20431;-75
2023/06/09 02:13:57;;;;;;;7.55;5.60;;;;;;;11.16;100.00;95585.03;1030470;28;20495;-75
2023/06/09 02:14:33;;;;;;;7.55;6.75;;;;;;;11.14;100.00;95590.56;1034995;28;20210;-75
2023/06/09 02:15:04;;;;;;;6.32;5.47;;;;;;;11.16;100.00;95590.28;1030597;28;20269;-75
2023/06/09 02:15:35;;;;;;;11.77;6.10;;;;;;;11.16;100.00;95590.28;1014506;29;20260;-74
2023/06/09 02:16:06;;;;;;;9.02;6.25;;;;;;;11.16;100.00;95582.41;1014529;29;20272;-75
2023/06/09 02:16:37;;;;;;;9.45;6.15;;;;;;;11.17;100.00;95591.88;1015252;29;20032;-74
2023/06/09 02:17:08;;;;;;;7.80;5.93;;;;;;;11.16;100.00;95590.28;1023226;28;20263;-74
2023/06/09 02:17:42;;;;;;;5.97;5.38;;;;;;;11.16;100.00;95587.66;1033087;28;20516;-74
2023/06/09 02:18:13;;;;;;;7.50;5.95;;;;;;;11.17;100.00;95600.53;1030459;28;20271;-75
2023/06/09 02:18:43;;;;;;;8.98;6.78;;;;;;;11.18;100.00;95590.81;1030597;28;20270;-74
2023/06/09 02:19:18;;;;;;;8.43;6.72;;;;;;;11.17;100.00;95584.00;1035298;28;20040;-74
2023/06/09 02:19:49;;;;;;;10.55;6.97;;;;;;;11.16;100.00;95583.19;1035258;28;20530;-74
2023/06/09 02:20:21;;;;;;;8.30;6.13;;;;;;;11.21;100.00;95591.06;1034481;28;20280;-75
2023/06/09 02:20:51;;;;;;;8.18;6.40;;;;;;;11.17;100.00;95584.78;1033791;28;20503;-75
2023/06/09 02:21:25;;;;;;;11.18;7.13;;;;;;;11.23;100.00;95594.22;1033838;28;20275;-74
2023/06/09 02:21:55;;;;;;;8.35;6.43;;;;;;;11.19;100.00;95585.28;1034875;28;20034;-75
2023/06/09 02:22:26;;;;;;;10.82;6.38;;;;;;;11.20;100.00;95583.44;1030642;28;20261;-74
2023/06/09 02:22:59;;;;;;;9.90;6.65;;;;;;;11.26;100.00;95591.00;1023256;28;20082;-75
2023/06/09 02:23:30;;;;;;;10.32;6.70;;;;;;;11.27;100.00;95583.94;1022267;29;20031;-75
2023/06/09 02:24:00;;;;;;;8.95;6.80;;;;;;;11.27;100.00;95586.56;1023903;28;20278;-75
2023/06/09 02:24:31;;;;;;;11.93;6.68;;;;;;;11.27;100.00;95584.72;1028305;28;20033;-74
2023/06/09 02:25:03;;;;;;;10.70;6.70;;;;;;;11.27;100.00;95581.31;1031167;28;20013;-75
2023/06/09 02:25:34;;;;;;;8.32;6.45;;;;;;;11.28;100.00;95585.50;1026891;28;20041;-75
2023/06/09 02:26:04;;;;;;;11.80;6.78;;;;;;;11.23;100.00;95572.38;1022872;29;20742;-76
2023/06/09 02:26:35;;;;;;;9.40;6.28;;;;;;;11.28;100.00;95588.91;1023207;28;20078;-74
2023/06/09 02:27:05;;;;;;;8.73;6.43;;;;;;;11.28;100.00;95581.03;1023278;28;20011;-74
2023/06/09 02:27:36;;;;;;;8.55;6.40;;;;;;;11.25;100.00;95581.56;1027349;28;20018;-74
2023/06/09 02:28:07;;;;;;;8.57;7.18;;;;;;;11.29;100.00;95587.06;1019202;29;20016;-74
2023/06/09 02:28:37;;;;;;;9.63;6.25;;;;;;;11.28;100.00;95585.50;1030245;28;20030;-74
2023/06/09 02:29:07;;;;;;;9.60;6.25;;;;;;;11.30;100.00;95588.63;1019439;29;20683;-74
2023/06/09 02:29:38;;;;;;;7.72;6.45;;;;;;;11.29;100.00;95587.84;1023392;28;20031;-74
2023/06/09 02:30:09;;;;;;;9.18;7.15;;;;;;;11.26;100.00;95583.13;1030783;28;20029;-74
2023/06/09 02:30:39;;;;;;;8.38;6.40;;;;;;;11.30;100.00;95583.38;1027502;28;20027;-74
2023/06/09 02:31:09;;;;;;;9.98;6.85;;;;;;;11.31;100.00;95592.84;1034689;28;20062;-73
2023/06/09 02:31:40;;;;;;;9.77;6.22;;;;;;;11.29;100.00;95594.94;1032801;28;20022;-75
2023/06/09 02:32:11;;;;;;;7.10;6.00;;;;;;;11.30;100.00;95599.13;1027159;28;20027;-74
2023/06/09 02:32:42;;;;;;;10.05;6.57;;;;;;;11.28;100.00;95588.13;1027151;28;20049;-75
2023/06/09 02:33:15;;;;;;;7.93;6.13;;;;;;;11.28;100.00;95582.88;1024211;28;20023;-76
2023/06/09 02:33:45;;;;;;;8.95;6.57;;;;;;;11.26;100.00;95587.59;1024261;28;20015;-75
2023/06/09 02:34:16;;;;;;;7.32;6.38;;;;;;;11.26;100.00;95592.84;1031553;28;20857;-75
2023/06/09 02:34:46;;;;;;;10.05;6.03;;;;;;;11.26;100.00;95582.34;1035509;28;20168;-74